createdAt,value
2022-07-26T00:01:20.700Z,98246.53
2022-07-26T00:03:48.847Z,98248.53
2022-07-26T00:06:15.407Z,98246.41
2022-07-26T00:08:45.189Z,98250.88
2022-07-26T00:11:11.685Z,98248.28
2022-07-26T00:13:38.315Z,98250.16
2022-07-26T00:16:05.278Z,98250.16
2022-07-26T00:18:32.573Z,98248.50
2022-07-26T00:20:59.543Z,98245.31
2022-07-26T00:23:27.532Z,98258.78
2022-07-26T00:25:54.179Z,98264.09
2022-07-26T00:28:20.653Z,98263.25
2022-07-26T00:30:47.300Z,98268.63
2022-07-26T00:33:13.959Z,98279.13
2022-07-26T00:35:40.428Z,98271.63
2022-07-26T00:38:06.964Z,98267.91
2022-07-26T00:40:34.398Z,98273.50
2022-07-26T00:43:00.899Z,98279.59
2022-07-26T00:45:28.409Z,98278.19
2022-07-26T00:47:54.879Z,98288.97
2022-07-26T00:50:21.412Z,98297.69
2022-07-26T00:52:49.309Z,98291.50
2022-07-26T00:55:17.969Z,98297.13
2022-07-26T00:57:45.323Z,98297.13
2022-07-26T01:00:19.744Z,98307.91
2022-07-26T01:02:46.431Z,98307.69
2022-07-26T01:05:13.060Z,98312.84
2022-07-26T01:07:40.223Z,98320.88
2022-07-26T01:10:12.168Z,98313.22
2022-07-26T01:12:40.084Z,98311.75
2022-07-26T01:15:08.599Z,98313.41
2022-07-26T01:17:36.277Z,98320.09
2022-07-26T01:20:06.665Z,98316.13
2022-07-26T01:22:33.128Z,98312.84
2022-07-26T01:24:59.627Z,98312.25
2022-07-26T01:27:30.689Z,98302.91
2022-07-26T01:30:00.140Z,98308.31
2022-07-26T01:32:26.546Z,98307.31
2022-07-26T01:34:53.039Z,98307.31
2022-07-26T01:37:19.475Z,98313.31
2022-07-26T01:39:46.395Z,98304.81
2022-07-26T01:42:12.854Z,98312.91
2022-07-26T01:44:40.487Z,98306.50
2022-07-26T01:47:06.990Z,98307.09
2022-07-26T01:49:33.500Z,98323.03
2022-07-26T01:52:00.122Z,98314.31
2022-07-26T01:54:26.521Z,98311.19
2022-07-26T01:56:52.939Z,98313.44
2022-07-26T01:59:19.559Z,98320.31
2022-07-26T02:01:46.082Z,98318.44
2022-07-26T02:04:32.589Z,98322.78
2022-07-26T02:06:59.547Z,98320.28
2022-07-26T02:09:26.346Z,98309.56
2022-07-26T02:11:55.330Z,98315.38
2022-07-26T02:14:25.512Z,98312.47
2022-07-26T02:16:59.789Z,98314.75
2022-07-26T02:19:28.757Z,98317.66
2022-07-26T02:21:55.981Z,98315.16
2022-07-26T02:24:22.550Z,98317.00
2022-07-26T02:26:48.986Z,98326.56
2022-07-26T02:29:15.528Z,98321.75
2022-07-26T02:31:42.074Z,98313.88
2022-07-26T02:34:15.330Z,98322.38
2022-07-26T02:36:41.755Z,98325.09
2022-07-26T02:39:08.219Z,98321.75
2022-07-26T02:41:34.670Z,98320.44
2022-07-26T02:44:01.102Z,98329.53
2022-07-26T02:46:27.618Z,98314.63
2022-07-26T02:48:54.192Z,98325.19
2022-07-26T02:51:20.722Z,98324.09
2022-07-26T02:53:47.585Z,98327.00
2022-07-26T02:56:14.074Z,98328.41
2022-07-26T02:58:40.629Z,98328.19
2022-07-26T03:01:07.321Z,98335.72
2022-07-26T03:03:36.691Z,98331.38
2022-07-26T03:06:04.821Z,98325.97
2022-07-26T03:08:31.442Z,98335.72
2022-07-26T03:10:57.942Z,98334.69
2022-07-26T03:13:24.359Z,98334.91
2022-07-26T03:15:50.996Z,98325.31
2022-07-26T03:18:17.756Z,98337.72
2022-07-26T03:20:44.414Z,98342.63
2022-07-26T03:23:10.907Z,98343.66
2022-07-26T03:25:38.316Z,98341.91
2022-07-26T03:28:05.059Z,98347.66
2022-07-26T03:30:31.859Z,98340.09
2022-07-26T03:32:58.528Z,98332.91
2022-07-26T03:35:25.581Z,98336.22
2022-07-26T03:37:52.622Z,98330.25
2022-07-26T03:40:20.178Z,98330.97
2022-07-26T03:42:47.976Z,98324.31
2022-07-26T03:45:15.910Z,98327.25
2022-07-26T03:47:43.259Z,98320.06
2022-07-26T03:50:10.988Z,98327.81
2022-07-26T03:52:37.952Z,98338.72
2022-07-26T03:55:25.039Z,98334.97
2022-07-26T03:57:51.627Z,98337.06
2022-07-26T04:00:18.469Z,98329.47
2022-07-26T04:02:45.049Z,98327.25
2022-07-26T04:05:11.608Z,98320.34
2022-07-26T04:07:52.584Z,98324.47
2022-07-26T04:10:20.436Z,98323.81
2022-07-26T04:12:47.060Z,98324.28
2022-07-26T04:15:13.629Z,98327.16
2022-07-26T04:17:41.102Z,98327.25
2022-07-26T04:20:09.949Z,98332.59
2022-07-26T04:22:37.730Z,98330.81
2022-07-26T04:25:06.678Z,98327.34
2022-07-26T04:27:33.982Z,98321.78
2022-07-26T04:30:00.541Z,98331.09
2022-07-26T04:32:27.374Z,98338.91
2022-07-26T04:34:53.920Z,98333.34
2022-07-26T04:37:20.440Z,98342.03
2022-07-26T04:39:49.368Z,98341.47
2022-07-26T04:42:19.582Z,98347.09
2022-07-26T04:44:46.103Z,98352.16
2022-07-26T04:47:12.818Z,98347.81
2022-07-26T04:49:40.585Z,98346.53
2022-07-26T04:52:07.291Z,98351.44
2022-07-26T04:54:33.729Z,98351.28
2022-07-26T04:57:00.381Z,98349.94
2022-07-26T04:59:26.849Z,98348.44
2022-07-26T05:01:53.460Z,98350.53
2022-07-26T05:04:19.971Z,98354.47
2022-07-26T05:06:46.445Z,98349.06
2022-07-26T05:09:12.959Z,98354.56
2022-07-26T05:11:39.530Z,98349.97
2022-07-26T05:14:06.492Z,98356.88
2022-07-26T05:16:33.321Z,98354.19
2022-07-26T05:19:00.086Z,98346.75
2022-07-26T05:21:28.014Z,98354.56
2022-07-26T05:23:55.535Z,98356.84
2022-07-26T05:26:22.095Z,98352.53
2022-07-26T05:28:48.650Z,98351.03
2022-07-26T05:31:15.348Z,98345.81
2022-07-26T05:33:41.950Z,98348.88
2022-07-26T05:36:08.739Z,98352.38
2022-07-26T05:38:35.271Z,98351.72
2022-07-26T05:41:01.743Z,98359.84
2022-07-26T05:43:41.526Z,98355.56
2022-07-26T05:46:09.848Z,98350.97
2022-07-26T05:48:36.757Z,98356.38
2022-07-26T05:51:03.440Z,98353.00
2022-07-26T05:53:29.976Z,98354.94
2022-07-26T05:55:56.425Z,98354.03
2022-07-26T05:58:22.851Z,98354.63
2022-07-26T06:00:49.357Z,98345.78
2022-07-26T06:03:25.771Z,98346.44
2022-07-26T06:05:57.044Z,98346.47
2022-07-26T06:08:25.771Z,98346.44
2022-07-26T06:10:53.596Z,98343.16
2022-07-26T06:13:20.082Z,98349.75
2022-07-26T06:15:47.409Z,98355.75
2022-07-26T06:18:14.435Z,98352.50
2022-07-26T06:20:46.334Z,98347.03
2022-07-26T06:23:13.341Z,98355.03
2022-07-26T06:25:40.370Z,98360.84
2022-07-26T06:28:08.968Z,98358.00
2022-07-26T06:30:37.979Z,98363.19
2022-07-26T06:33:05.243Z,98357.97
2022-07-26T06:35:32.164Z,98365.75
2022-07-26T06:37:59.836Z,98369.94
2022-07-26T06:40:26.592Z,98371.38
2022-07-26T06:42:53.503Z,98369.44
2022-07-26T06:45:20.134Z,98369.50
2022-07-26T06:47:46.945Z,98370.09
2022-07-26T06:50:13.589Z,98364.78
2022-07-26T06:52:40.120Z,98380.00
2022-07-26T06:55:08.860Z,98372.03
2022-07-26T06:57:49.813Z,98386.34
2022-07-26T07:00:18.075Z,98370.97
2022-07-26T07:02:44.859Z,98375.81
2022-07-26T07:05:11.981Z,98369.72
2022-07-26T07:07:39.055Z,98365.56
2022-07-26T07:10:09.318Z,98372.47
2022-07-26T07:12:35.918Z,98364.16
2022-07-26T07:15:02.612Z,98369.56
2022-07-26T07:17:29.171Z,98369.16
2022-07-26T07:19:55.720Z,98367.44
2022-07-26T07:22:22.339Z,98375.41
2022-07-26T07:24:48.863Z,98368.41
2022-07-26T07:27:15.858Z,98369.44
2022-07-26T07:29:43.282Z,98365.69
2022-07-26T07:32:18.460Z,98366.00
2022-07-26T07:34:47.919Z,98375.31
2022-07-26T07:37:15.021Z,98366.13
2022-07-26T07:39:41.566Z,98376.16
2022-07-26T07:42:08.060Z,98380.81
2022-07-26T07:44:34.622Z,98380.19
2022-07-26T07:47:02.101Z,98371.78
2022-07-26T07:49:28.703Z,98369.72
2022-07-26T07:51:55.281Z,98372.94
2022-07-26T07:54:22.281Z,98377.25
2022-07-26T07:56:49.144Z,98385.19
2022-07-26T07:59:15.942Z,98378.47
2022-07-26T08:01:42.633Z,98377.53
2022-07-26T08:04:11.743Z,98381.75
2022-07-26T08:06:38.360Z,98383.28
2022-07-26T08:09:07.993Z,98389.88
2022-07-26T08:11:34.771Z,98386.75
2022-07-26T08:14:01.773Z,98376.31
2022-07-26T08:16:28.430Z,98386.47
2022-07-26T08:18:57.262Z,98388.22
2022-07-26T08:21:24.836Z,98391.25
2022-07-26T08:23:54.287Z,98387.31
2022-07-26T08:26:20.793Z,98380.47
2022-07-26T08:28:48.345Z,98375.31
2022-07-26T08:31:16.282Z,98390.22
2022-07-26T08:33:46.483Z,98393.63
2022-07-26T08:36:14.879Z,98397.72
2022-07-26T08:38:41.837Z,98389.59
2022-07-26T08:41:08.358Z,98383.22
2022-07-26T08:43:51.080Z,98388.75
2022-07-26T08:46:24.152Z,98394.78
2022-07-26T08:48:51.686Z,98385.13
2022-07-26T08:51:22.479Z,98402.53
2022-07-26T08:53:50.291Z,98408.13
2022-07-26T08:56:16.833Z,98409.63
2022-07-26T08:58:43.869Z,98405.66
2022-07-26T09:01:15.147Z,98412.69
2022-07-26T09:03:43.701Z,98415.53
2022-07-26T09:06:21.664Z,98410.75
2022-07-26T09:08:51.167Z,98410.19
2022-07-26T09:11:29.122Z,98412.03
2022-07-26T09:14:03.021Z,98410.19
2022-07-26T09:16:33.365Z,98427.69
2022-07-26T09:19:19.014Z,98424.97
2022-07-26T09:21:46.596Z,98414.03
2022-07-26T09:24:13.680Z,98425.22
2022-07-26T09:26:40.226Z,98426.94
2022-07-26T09:29:07.025Z,98425.34
2022-07-26T09:31:34.700Z,98432.13
2022-07-26T09:34:01.545Z,98425.69
2022-07-26T09:36:28.622Z,98425.13
2022-07-26T09:38:58.969Z,98416.56
2022-07-26T09:41:35.399Z,98421.19
2022-07-26T09:44:19.759Z,98421.16
2022-07-26T09:46:54.357Z,98419.00
2022-07-26T09:49:22.894Z,98428.22
2022-07-26T09:51:54.139Z,98415.00
2022-07-26T09:54:32.726Z,98424.22
2022-07-26T09:56:59.891Z,98431.97
2022-07-26T09:59:28.322Z,98432.91
2022-07-26T10:01:57.577Z,98440.38
2022-07-26T10:04:24.730Z,98430.31
2022-07-26T10:06:52.013Z,98436.31
2022-07-26T10:09:19.465Z,98429.28
2022-07-26T10:11:53.090Z,98436.44
2022-07-26T10:14:40.368Z,98428.31
2022-07-26T10:17:31.154Z,98438.19
2022-07-26T10:19:59.247Z,98437.09
2022-07-26T10:22:34.147Z,98436.66
2022-07-26T10:25:19.200Z,98445.66
2022-07-26T10:27:47.236Z,98445.28
2022-07-26T10:30:19.920Z,98439.63
2022-07-26T10:32:59.605Z,98448.56
2022-07-26T10:35:43.989Z,98437.38
2022-07-26T10:38:22.956Z,98443.41
2022-07-26T10:41:00.859Z,98440.16
2022-07-26T10:43:44.512Z,98446.16
2022-07-26T10:46:17.181Z,98451.13
2022-07-26T10:48:59.023Z,98450.34
2022-07-26T10:51:27.659Z,98451.66
2022-07-26T10:54:06.219Z,98448.34
2022-07-26T10:56:34.306Z,98458.34
2022-07-26T10:59:01.744Z,98450.81
2022-07-26T11:01:36.338Z,98450.16
2022-07-26T11:04:03.076Z,98460.53
2022-07-26T11:06:30.499Z,98458.19
2022-07-26T11:08:57.265Z,98459.34
2022-07-26T11:11:32.894Z,98460.22
2022-07-26T11:14:07.202Z,98461.50
2022-07-26T11:16:45.781Z,98450.06
2022-07-26T11:19:30.865Z,98446.53
2022-07-26T11:21:59.154Z,98442.56
2022-07-26T11:24:26.789Z,98437.75
2022-07-26T11:26:54.111Z,98445.47
2022-07-26T11:29:37.979Z,98440.25
2022-07-26T11:32:14.758Z,98442.53
2022-07-26T11:34:45.269Z,98433.00
2022-07-26T11:37:12.311Z,98432.06
2022-07-26T11:39:38.950Z,98443.56
2022-07-26T11:42:11.659Z,98435.19
2022-07-26T11:44:38.617Z,98446.81
2022-07-26T11:47:24.328Z,98438.97
2022-07-26T11:50:11.695Z,98437.63
2022-07-26T11:52:39.513Z,98443.41
2022-07-26T11:55:06.987Z,98448.41
2022-07-26T11:57:33.552Z,98449.16
2022-07-26T12:00:01.121Z,98451.25
2022-07-26T12:02:30.084Z,98445.88
2022-07-26T12:05:18.481Z,98448.66
2022-07-26T12:08:00.163Z,98450.53
2022-07-26T12:10:28.092Z,98443.28
2022-07-26T12:13:12.376Z,98448.69
2022-07-26T12:15:50.895Z,98448.00
2022-07-26T12:18:26.125Z,98449.84
2022-07-26T12:21:06.806Z,98442.34
2022-07-26T12:23:50.836Z,98443.50
2022-07-26T12:26:27.599Z,98442.50
2022-07-26T12:28:55.864Z,98451.44
2022-07-26T12:31:27.853Z,98441.34
2022-07-26T12:33:54.726Z,98450.47
2022-07-26T12:36:27.139Z,98444.22
2022-07-26T12:38:59.975Z,98450.25
2022-07-26T12:41:36.704Z,98443.72
2022-07-26T12:44:05.133Z,98447.53
2022-07-26T12:46:33.471Z,98435.06
2022-07-26T12:49:00.902Z,98439.78
2022-07-26T12:51:27.695Z,98438.69
2022-07-26T12:53:54.172Z,98443.34
2022-07-26T12:56:20.741Z,98434.41
2022-07-26T12:58:47.346Z,98427.88
2022-07-26T13:01:14.104Z,98438.19
2022-07-26T13:03:40.681Z,98428.31
2022-07-26T13:06:07.365Z,98430.78
2022-07-26T13:08:33.868Z,98426.91
2022-07-26T13:11:00.516Z,98431.44
2022-07-26T13:13:27.051Z,98412.44
2022-07-26T13:15:53.465Z,98409.16
2022-07-26T13:18:19.953Z,98402.22
2022-07-26T13:20:46.615Z,98404.22
2022-07-26T13:23:13.794Z,98391.59
2022-07-26T13:25:42.283Z,98395.56
2022-07-26T13:28:09.740Z,98407.66
2022-07-26T13:30:38.160Z,98411.31
2022-07-26T13:33:05.188Z,98407.13
2022-07-26T13:35:31.783Z,98410.88
2022-07-26T13:37:58.214Z,98400.94
2022-07-26T13:40:30.716Z,98413.59
2022-07-26T13:42:57.883Z,98417.81
2022-07-26T13:45:24.346Z,98413.72
2022-07-26T13:47:55.994Z,98408.56
2022-07-26T13:50:22.709Z,98413.06
2022-07-26T13:52:49.259Z,98418.94
2022-07-26T13:55:15.902Z,98421.69
2022-07-26T13:57:49.635Z,98427.19
2022-07-26T14:00:24.654Z,98415.94
2022-07-26T14:02:51.308Z,98416.00
2022-07-26T14:05:18.609Z,98420.88
2022-07-26T14:07:45.147Z,98417.91
2022-07-26T14:10:11.650Z,98417.81
2022-07-26T14:12:38.473Z,98419.66
2022-07-26T14:15:11.987Z,98410.41
2022-07-26T14:17:40.891Z,98402.78
2022-07-26T14:20:07.823Z,98406.84
2022-07-26T14:22:34.300Z,98406.38
2022-07-26T14:25:00.776Z,98412.59
2022-07-26T14:27:27.452Z,98403.38
2022-07-26T14:29:53.980Z,98402.81
2022-07-26T14:32:22.022Z,98397.81
2022-07-26T14:34:49.314Z,98408.03
2022-07-26T14:37:44.234Z,98406.34
2022-07-26T14:40:05.781Z,98400.88
2022-07-26T14:42:32.352Z,98404.63
2022-07-26T14:44:58.905Z,98399.84
2022-07-26T14:47:25.477Z,98397.31
2022-07-26T14:49:52.126Z,98390.06
2022-07-26T14:52:18.699Z,98395.75
2022-07-26T14:54:45.189Z,98404.22
2022-07-26T14:57:11.764Z,98401.44
2022-07-26T14:59:38.224Z,98394.28
2022-07-26T15:02:06.093Z,98403.91
2022-07-26T15:04:32.931Z,98398.97
2022-07-26T15:06:59.776Z,98388.50
2022-07-26T15:09:26.369Z,98392.31
2022-07-26T15:11:53.045Z,98393.06
2022-07-26T15:14:19.615Z,98389.03
2022-07-26T15:16:46.308Z,98393.16
2022-07-26T15:19:12.961Z,98387.94
2022-07-26T15:21:39.594Z,98388.09
2022-07-26T15:24:06.415Z,98391.56
2022-07-26T15:26:32.886Z,98388.09
2022-07-26T15:28:59.395Z,98391.41
2022-07-26T15:31:37.395Z,98383.94
2022-07-26T15:34:07.324Z,98383.94
2022-07-26T15:36:34.238Z,98384.03
2022-07-26T15:39:14.720Z,98384.25
2022-07-26T15:41:43.774Z,98381.28
2022-07-26T15:44:10.941Z,98378.97
2022-07-26T15:46:38.941Z,98384.34
2022-07-26T15:49:06.645Z,98389.53
2022-07-26T15:51:33.310Z,98382.19
2022-07-26T15:53:59.920Z,98385.16
2022-07-26T15:56:26.397Z,98392.09
2022-07-26T15:58:52.915Z,98392.63
2022-07-26T16:01:20.539Z,98389.47
2022-07-26T16:03:47.493Z,98387.81
2022-07-26T16:06:14.096Z,98391.22
2022-07-26T16:09:05.505Z,98391.72
2022-07-26T16:11:30.905Z,98395.94
2022-07-26T16:14:01.319Z,98399.69
2022-07-26T16:16:29.524Z,98395.13
2022-07-26T16:18:56.284Z,98387.69
2022-07-26T16:21:22.805Z,98395.72
2022-07-26T16:23:50.791Z,98404.38
2022-07-26T16:26:17.863Z,98398.03
2022-07-26T16:28:44.543Z,98400.97
2022-07-26T16:31:11.126Z,98402.38
2022-07-26T16:33:37.844Z,98395.09
2022-07-26T16:36:12.416Z,98403.41
2022-07-26T16:38:38.890Z,98400.69
2022-07-26T16:41:05.542Z,98402.94
2022-07-26T16:43:32.094Z,98397.00
2022-07-26T16:45:58.564Z,98399.94
2022-07-26T16:48:25.090Z,98399.56
2022-07-26T16:50:51.548Z,98397.56
2022-07-26T16:53:18.296Z,98396.13
2022-07-26T16:55:45.397Z,98390.97
2022-07-26T16:58:11.922Z,98392.31
2022-07-26T17:00:38.436Z,98394.31
2022-07-26T17:03:05.055Z,98397.31
2022-07-26T17:05:31.629Z,98393.25
2022-07-26T17:07:58.375Z,98395.25
2022-07-26T17:10:25.489Z,98390.84
2022-07-26T17:12:52.068Z,98399.63
2022-07-26T17:15:18.674Z,98390.22
2022-07-26T17:17:48.676Z,98403.56
2022-07-26T17:20:16.267Z,98399.59
2022-07-26T17:22:42.833Z,98399.69
2022-07-26T17:25:10.000Z,98399.34
2022-07-26T17:27:36.599Z,98394.72
2022-07-26T17:30:07.550Z,98397.47
2022-07-26T17:32:34.777Z,98404.03
2022-07-26T17:35:01.734Z,98407.00
2022-07-26T17:37:28.546Z,98394.56
2022-07-26T17:39:57.373Z,98399.19
2022-07-26T17:42:24.207Z,98403.09
2022-07-26T17:44:51.126Z,98402.66
2022-07-26T17:47:29.206Z,98400.50
2022-07-26T17:50:09.008Z,98409.63
2022-07-26T17:52:45.113Z,98403.38
2022-07-26T17:55:13.856Z,98406.59
2022-07-26T17:57:40.458Z,98406.16
2022-07-26T18:00:07.670Z,98406.97
2022-07-26T18:02:34.400Z,98413.50
2022-07-26T18:05:02.409Z,98410.53
2022-07-26T18:07:29.070Z,98410.19
2022-07-26T18:09:55.619Z,98411.59
2022-07-26T18:12:22.120Z,98415.38
2022-07-26T18:14:48.543Z,98408.44
2022-07-26T18:17:15.038Z,98407.94
2022-07-26T18:19:41.688Z,98408.88
2022-07-26T18:22:08.224Z,98411.28
2022-07-26T18:24:34.688Z,98403.56
2022-07-26T18:27:01.124Z,98403.47
2022-07-26T18:29:27.994Z,98407.94
2022-07-26T18:31:56.434Z,98401.22
2022-07-26T18:34:22.949Z,98400.41
2022-07-26T18:36:49.389Z,98416.53
2022-07-26T18:39:15.863Z,98405.78
2022-07-26T18:41:42.345Z,98410.19
2022-07-26T18:44:08.856Z,98408.69
2022-07-26T18:46:38.992Z,98409.38
2022-07-26T18:49:05.607Z,98414.44
2022-07-26T18:51:33.654Z,98418.28
2022-07-26T18:54:00.708Z,98417.22
2022-07-26T18:56:27.235Z,98418.41
2022-07-26T18:58:53.750Z,98422.06
2022-07-26T19:01:20.422Z,98411.53
2022-07-26T19:03:47.014Z,98414.38
2022-07-26T19:06:13.642Z,98411.16
2022-07-26T19:08:40.209Z,98422.72
2022-07-26T19:11:07.059Z,98428.84
2022-07-26T19:13:33.773Z,98420.00
2022-07-26T19:16:00.359Z,98433.91
2022-07-26T19:18:27.113Z,98427.84
2022-07-26T19:20:53.594Z,98435.16
2022-07-26T19:23:20.173Z,98438.72
2022-07-26T19:25:47.190Z,98436.81
2022-07-26T19:28:13.919Z,98443.81
2022-07-26T19:30:40.459Z,98438.47
2022-07-26T19:33:07.104Z,98444.53
2022-07-26T19:35:33.647Z,98447.84
2022-07-26T19:38:00.169Z,98440.94
2022-07-26T19:40:26.632Z,98453.72
2022-07-26T19:42:53.237Z,98451.16
2022-07-26T19:45:19.788Z,98465.47
2022-07-26T19:47:46.394Z,98472.13
2022-07-26T19:50:13.093Z,98471.69
2022-07-26T19:52:40.564Z,98487.16
2022-07-26T19:55:08.443Z,98473.63
2022-07-26T19:57:35.381Z,98477.25
2022-07-26T20:00:04.252Z,98487.00
2022-07-26T20:02:30.943Z,98484.13
2022-07-26T20:04:57.608Z,98485.84
2022-07-26T20:07:24.067Z,98485.38
2022-07-26T20:09:51.419Z,98494.97
2022-07-26T20:12:21.318Z,98494.50
2022-07-26T20:14:48.029Z,98497.13
2022-07-26T20:17:14.587Z,98495.47
2022-07-26T20:19:41.267Z,98505.50
2022-07-26T20:22:07.812Z,98513.47
2022-07-26T20:24:34.462Z,98511.50
2022-07-26T20:27:00.975Z,98525.81
2022-07-26T20:29:27.485Z,98516.00
2022-07-26T20:31:53.930Z,98525.47
2022-07-26T20:34:20.419Z,98518.69
2022-07-26T20:36:47.459Z,98521.81
2022-07-26T20:39:15.145Z,98524.09
2022-07-26T20:41:41.844Z,98528.56
2022-07-26T20:44:08.457Z,98520.50
2022-07-26T20:46:39.815Z,98518.91
2022-07-26T20:49:07.652Z,98522.41
2022-07-26T20:51:34.369Z,98536.31
2022-07-26T20:54:01.097Z,98533.97
2022-07-26T20:56:27.732Z,98538.25
2022-07-26T20:58:55.359Z,98541.31
2022-07-26T21:01:21.912Z,98539.63
2022-07-26T21:03:48.404Z,98547.38
2022-07-26T21:06:14.931Z,98558.03
2022-07-26T21:08:41.404Z,98560.34
2022-07-26T21:11:07.898Z,98556.41
2022-07-26T21:13:34.410Z,98550.78
2022-07-26T21:16:00.885Z,98560.38
2022-07-26T21:18:29.813Z,98561.22
2022-07-26T21:20:57.791Z,98562.22
2022-07-26T21:23:24.475Z,98551.19
2022-07-26T21:25:58.046Z,98547.50
2022-07-26T21:28:27.210Z,98551.69
2022-07-26T21:30:54.133Z,98550.84
2022-07-26T21:33:20.857Z,98560.06
2022-07-26T21:35:47.454Z,98558.59
2022-07-26T21:38:13.928Z,98558.63
2022-07-26T21:40:43.214Z,98560.47
2022-07-26T21:43:09.653Z,98558.16
2022-07-26T21:45:36.228Z,98568.56
2022-07-26T21:48:03.427Z,98560.50
2022-07-26T21:50:30.030Z,98556.34
2022-07-26T21:52:56.497Z,98561.53
2022-07-26T21:55:22.930Z,98565.97
2022-07-26T21:57:49.461Z,98565.78
2022-07-26T22:00:16.890Z,98561.81
2022-07-26T22:02:43.593Z,98554.72
2022-07-26T22:05:28.675Z,98566.38
2022-07-26T22:07:55.682Z,98567.25
2022-07-26T22:10:22.306Z,98568.09
2022-07-26T22:12:48.765Z,98560.78
2022-07-26T22:15:15.390Z,98563.28
2022-07-26T22:17:41.915Z,98567.66
2022-07-26T22:20:09.149Z,98561.84
2022-07-26T22:22:36.273Z,98567.47
2022-07-26T22:25:03.200Z,98567.28
2022-07-26T22:27:29.659Z,98571.44
2022-07-26T22:29:56.152Z,98567.50
2022-07-26T22:32:22.586Z,98570.19
2022-07-26T22:34:49.021Z,98568.97
2022-07-26T22:37:15.632Z,98571.88
2022-07-26T22:39:42.103Z,98575.19
2022-07-26T22:42:16.301Z,98562.25
2022-07-26T22:44:43.152Z,98568.97
2022-07-26T22:47:09.653Z,98568.50
2022-07-26T22:49:36.210Z,98567.06
2022-07-26T22:52:02.824Z,98567.06
2022-07-26T22:54:29.347Z,98567.69
2022-07-26T22:56:55.885Z,98568.94
2022-07-26T22:59:22.800Z,98571.63
2022-07-26T23:01:49.323Z,98563.13
2022-07-26T23:04:15.943Z,98565.38
2022-07-26T23:06:43.241Z,98562.47
2022-07-26T23:09:11.559Z,98563.28
2022-07-26T23:11:38.493Z,98559.13
2022-07-26T23:14:05.070Z,98561.63
2022-07-26T23:16:31.763Z,98561.44
2022-07-26T23:18:58.282Z,98567.88
2022-07-26T23:21:25.068Z,98566.44
2022-07-26T23:23:51.513Z,98556.22
2022-07-26T23:26:17.985Z,98566.00
2022-07-26T23:28:44.528Z,98563.06
2022-07-26T23:31:12.465Z,98567.03
2022-07-26T23:33:50.463Z,98573.88
2022-07-26T23:36:17.721Z,98569.94
2022-07-26T23:38:44.175Z,98573.44
2022-07-26T23:41:10.716Z,98569.25
2022-07-26T23:43:37.192Z,98581.72
2022-07-26T23:46:03.643Z,98571.91
2022-07-26T23:48:30.706Z,98580.91
2022-07-26T23:50:57.211Z,98572.19
2022-07-26T23:53:26.701Z,98570.94
2022-07-26T23:55:53.692Z,98565.69
2022-07-26T23:58:20.245Z,98571.13
